sensor_id;sensor_type;location;lat;lon;timestamp;P1;durP1;ratioP1;P2;durP2;ratioP2
80508;SDS011;69838;52.602;13.434;2023-11-21T00:00:16;38.92;;;17.55;;
80508;SDS011;69838;52.602;13.434;2023-11-21T00:01:02;45.85;;;21.20;;
80508;SDS011;69838;52.602;13.434;2023-11-21T00:01:50;35.92;;;18.45;;
80508;SDS011;69838;52.602;13.434;2023-11-21T00:02:36;35.22;;;18.42;;
80508;SDS011;69838;52.602;13.434;2023-11-21T00:03:22;35.88;;;17.38;;
80508;SDS011;69838;52.602;13.434;2023-11-21T00:04:08;28.48;;;14.25;;
80508;SDS011;69838;52.602;13.434;2023-11-21T00:04:54;29.58;;;14.90;;
80508;SDS011;69838;52.602;13.434;2023-11-21T00:05:39;34.17;;;18.85;;
80508;SDS011;69838;52.602;13.434;2023-11-21T00:06:26;32.40;;;15.05;;
80508;SDS011;69838;52.602;13.434;2023-11-21T00:07:12;26.42;;;12.98;;
80508;SDS011;69838;52.602;13.434;2023-11-21T00:07:57;31.08;;;15.20;;
80508;SDS011;69838;52.602;13.434;2023-11-21T00:08:43;29.50;;;14.52;;
80508;SDS011;69838;52.602;13.434;2023-11-21T00:09:29;28.42;;;13.88;;
80508;SDS011;69838;52.602;13.434;2023-11-21T00:10:14;34.50;;;15.65;;
80508;SDS011;69838;52.602;13.434;2023-11-21T00:11:00;29.98;;;15.10;;
80508;SDS011;69838;52.602;13.434;2023-11-21T00:11:46;30.92;;;15.75;;
80508;SDS011;69838;52.602;13.434;2023-11-21T00:12:31;35.25;;;16.00;;
80508;SDS011;69838;52.602;13.434;2023-11-21T00:13:18;31.33;;;13.80;;
80508;SDS011;69838;52.602;13.434;2023-11-21T00:14:04;29.70;;;13.82;;
80508;SDS011;69838;52.602;13.434;2023-11-21T00:14:49;33.03;;;13.90;;
80508;SDS011;69838;52.602;13.434;2023-11-21T00:15:36;31.65;;;14.13;;
80508;SDS011;69838;52.602;13.434;2023-11-21T00:16:21;34.40;;;14.70;;
80508;SDS011;69838;52.602;13.434;2023-11-21T00:17:09;32.70;;;14.45;;
80508;SDS011;69838;52.602;13.434;2023-11-21T00:17:55;33.17;;;13.70;;
80508;SDS011;69838;52.602;13.434;2023-11-21T00:18:40;34.83;;;13.93;;
80508;SDS011;69838;52.602;13.434;2023-11-21T00:19:27;29.27;;;13.00;;
80508;SDS011;69838;52.602;13.434;2023-11-21T00:20:14;30.63;;;13.02;;
80508;SDS011;69838;52.602;13.434;2023-11-21T00:20:59;34.47;;;14.00;;
80508;SDS011;69838;52.602;13.434;2023-11-21T00:21:44;30.30;;;13.80;;
80508;SDS011;69838;52.602;13.434;2023-11-21T00:22:31;27.23;;;13.20;;
80508;SDS011;69838;52.602;13.434;2023-11-21T00:23:17;31.70;;;14.00;;
80508;SDS011;69838;52.602;13.434;2023-11-21T00:24:03;30.83;;;14.00;;
80508;SDS011;69838;52.602;13.434;2023-11-21T00:24:49;33.85;;;14.45;;
80508;SDS011;69838;52.602;13.434;2023-11-21T00:25:35;35.38;;;13.80;;
80508;SDS011;69838;52.602;13.434;2023-11-21T00:26:20;34.88;;;14.88;;
80508;SDS011;69838;52.602;13.434;2023-11-21T00:27:06;30.83;;;13.73;;
80508;SDS011;69838;52.602;13.434;2023-11-21T00:27:52;38.08;;;14.70;;
80508;SDS011;69838;52.602;13.434;2023-11-21T00:28:37;38.15;;;15.63;;
80508;SDS011;69838;52.602;13.434;2023-11-21T00:29:23;38.42;;;15.43;;
80508;SDS011;69838;52.602;13.434;2023-11-21T00:30:09;34.85;;;14.40;;
80508;SDS011;69838;52.602;13.434;2023-11-21T00:30:55;35.70;;;14.80;;
80508;SDS011;69838;52.602;13.434;2023-11-21T00:31:42;39.88;;;15.63;;
80508;SDS011;69838;52.602;13.434;2023-11-21T00:32:28;43.75;;;16.30;;
80508;SDS011;69838;52.602;13.434;2023-11-21T00:33:14;38.58;;;16.10;;
80508;SDS011;69838;52.602;13.434;2023-11-21T00:34:00;40.70;;;15.63;;
80508;SDS011;69838;52.602;13.434;2023-11-21T00:34:45;45.33;;;16.98;;
80508;SDS011;69838;52.602;13.434;2023-11-21T00:35:30;47.00;;;18.63;;
80508;SDS011;69838;52.602;13.434;2023-11-21T00:36:17;43.25;;;18.38;;
80508;SDS011;69838;52.602;13.434;2023-11-21T00:37:03;45.05;;;16.13;;
80508;SDS011;69838;52.602;13.434;2023-11-21T00:37:48;49.13;;;19.85;;
80508;SDS011;69838;52.602;13.434;2023-11-21T00:38:35;45.78;;;17.15;;
80508;SDS011;69838;52.602;13.434;2023-11-21T00:39:20;45.55;;;16.33;;
80508;SDS011;69838;52.602;13.434;2023-11-21T00:40:06;43.25;;;16.75;;
80508;SDS011;69838;52.602;13.434;2023-11-21T00:40:54;43.53;;;17.05;;
80508;SDS011;69838;52.602;13.434;2023-11-21T00:41:41;44.28;;;16.33;;
80508;SDS011;69838;52.602;13.434;2023-11-21T00:42:27;47.30;;;17.50;;
80508;SDS011;69838;52.602;13.434;2023-11-21T00:43:13;50.15;;;17.92;;
80508;SDS011;69838;52.602;13.434;2023-11-21T00:43:58;45.33;;;18.77;;
80508;SDS011;69838;52.602;13.434;2023-11-21T00:44:44;54.17;;;19.02;;
80508;SDS011;69838;52.602;13.434;2023-11-21T00:45:30;53.85;;;20.10;;
80508;SDS011;69838;52.602;13.434;2023-11-21T00:46:16;49.47;;;19.67;;
80508;SDS011;69838;52.602;13.434;2023-11-21T00:47:02;50.00;;;18.92;;
80508;SDS011;69838;52.602;13.434;2023-11-21T00:47:49;51.33;;;19.55;;
80508;SDS011;69838;52.602;13.434;2023-11-21T00:48:34;49.72;;;18.95;;
80508;SDS011;69838;52.602;13.434;2023-11-21T00:49:20;53.78;;;18.65;;
80508;SDS011;69838;52.602;13.434;2023-11-21T00:50:06;51.78;;;18.50;;
80508;SDS011;69838;52.602;13.434;2023-11-21T00:50:52;51.65;;;19.67;;
80508;SDS011;69838;52.602;13.434;2023-11-21T00:51:38;55.30;;;20.83;;
80508;SDS011;69838;52.602;13.434;2023-11-21T00:52:23;59.03;;;20.02;;
80508;SDS011;69838;52.602;13.434;2023-11-21T00:53:09;55.67;;;20.73;;
80508;SDS011;69838;52.602;13.434;2023-11-21T00:53:55;52.60;;;19.05;;
80508;SDS011;69838;52.602;13.434;2023-11-21T00:54:41;53.20;;;19.08;;
80508;SDS011;69838;52.602;13.434;2023-11-21T00:55:26;54.63;;;19.70;;
80508;SDS011;69838;52.602;13.434;2023-11-21T00:56:14;51.80;;;18.88;;
80508;SDS011;69838;52.602;13.434;2023-11-21T00:57:00;62.35;;;19.73;;
80508;SDS011;69838;52.602;13.434;2023-11-21T00:57:45;52.05;;;17.80;;
80508;SDS011;69838;52.602;13.434;2023-11-21T00:58:32;59.65;;;19.05;;
80508;SDS011;69838;52.602;13.434;2023-11-21T00:59:17;61.65;;;19.75;;
80508;SDS011;69838;52.602;13.434;2023-11-21T01:00:03;54.95;;;20.30;;
80508;SDS011;69838;52.602;13.434;2023-11-21T01:00:52;55.90;;;19.27;;
80508;SDS011;69838;52.602;13.434;2023-11-21T01:01:38;60.50;;;18.83;;
80508;SDS011;69838;52.602;13.434;2023-11-21T01:02:23;56.85;;;19.17;;
80508;SDS011;69838;52.602;13.434;2023-11-21T01:03:11;53.85;;;19.55;;
80508;SDS011;69838;52.602;13.434;2023-11-21T01:03:57;57.72;;;20.20;;
80508;SDS011;69838;52.602;13.434;2023-11-21T01:04:42;59.85;;;19.50;;
80508;SDS011;69838;52.602;13.434;2023-11-21T01:05:28;53.90;;;18.05;;
80508;SDS011;69838;52.602;13.434;2023-11-21T01:06:14;57.53;;;18.63;;
80508;SDS011;69838;52.602;13.434;2023-11-21T01:07:01;59.75;;;19.08;;
80508;SDS011;69838;52.602;13.434;2023-11-21T01:07:46;53.95;;;19.42;;
80508;SDS011;69838;52.602;13.434;2023-11-21T01:08:31;57.75;;;18.92;;
80508;SDS011;69838;52.602;13.434;2023-11-21T01:09:18;52.97;;;17.58;;
80508;SDS011;69838;52.602;13.434;2023-11-21T01:10:03;53.53;;;18.20;;
80508;SDS011;69838;52.602;13.434;2023-11-21T01:10:52;54.42;;;18.88;;
80508;SDS011;69838;52.602;13.434;2023-11-21T01:11:38;50.38;;;16.70;;
80508;SDS011;69838;52.602;13.434;2023-11-21T01:12:24;57.78;;;18.70;;
80508;SDS011;69838;52.602;13.434;2023-11-21T01:13:10;56.55;;;18.95;;
80508;SDS011;69838;52.602;13.434;2023-11-21T01:13:56;58.85;;;21.33;;
80508;SDS011;69838;52.602;13.434;2023-11-21T01:14:41;53.72;;;20.40;;
80508;SDS011;69838;52.602;13.434;2023-11-21T01:15:26;57.80;;;21.55;;
80508;SDS011;69838;52.602;13.434;2023-11-21T01:16:13;56.78;;;20.42;;
80508;SDS011;69838;52.602;13.434;2023-11-21T01:16:58;56.95;;;21.35;;
80508;SDS011;69838;52.602;13.434;2023-11-21T01:17:43;53.60;;;20.70;;
80508;SDS011;69838;52.602;13.434;2023-11-21T01:18:31;53.63;;;19.95;;
80508;SDS011;69838;52.602;13.434;2023-11-21T01:19:17;53.38;;;19.48;;
80508;SDS011;69838;52.602;13.434;2023-11-21T01:20:02;55.50;;;20.75;;
80508;SDS011;69838;52.602;13.434;2023-11-21T01:20:51;53.13;;;16.67;;
80508;SDS011;69838;52.602;13.434;2023-11-21T01:21:38;46.65;;;16.05;;
80508;SDS011;69838;52.602;13.434;2023-11-21T01:22:23;47.72;;;16.83;;
80508;SDS011;69838;52.602;13.434;2023-11-21T01:23:11;47.55;;;17.40;;
80508;SDS011;69838;52.602;13.434;2023-11-21T01:23:56;47.22;;;16.75;;
80508;SDS011;69838;52.602;13.434;2023-11-21T01:24:41;46.45;;;15.68;;
80508;SDS011;69838;52.602;13.434;2023-11-21T01:25:28;47.38;;;16.20;;
80508;SDS011;69838;52.602;13.434;2023-11-21T01:26:13;44.55;;;15.55;;
80508;SDS011;69838;52.602;13.434;2023-11-21T01:26:58;40.22;;;15.10;;
80508;SDS011;69838;52.602;13.434;2023-11-21T01:27:45;37.05;;;14.45;;
80508;SDS011;69838;52.602;13.434;2023-11-21T01:28:30;36.03;;;12.48;;
80508;SDS011;69838;52.602;13.434;2023-11-21T01:29:17;36.60;;;13.63;;
80508;SDS011;69838;52.602;13.434;2023-11-21T01:30:02;38.67;;;13.80;;
80508;SDS011;69838;52.602;13.434;2023-11-21T01:30:48;42.17;;;14.02;;
80508;SDS011;69838;52.602;13.434;2023-11-21T01:31:35;40.65;;;13.90;;
80508;SDS011;69838;52.602;13.434;2023-11-21T01:32:20;40.35;;;14.38;;
80508;SDS011;69838;52.602;13.434;2023-11-21T01:33:05;40.22;;;14.55;;
80508;SDS011;69838;52.602;13.434;2023-11-21T01:33:53;41.85;;;14.55;;
80508;SDS011;69838;52.602;13.434;2023-11-21T01:34:40;37.55;;;13.45;;
80508;SDS011;69838;52.602;13.434;2023-11-21T01:35:25;39.47;;;14.48;;
80508;SDS011;69838;52.602;13.434;2023-11-21T01:36:11;38.60;;;13.82;;
80508;SDS011;69838;52.602;13.434;2023-11-21T01:36:56;36.50;;;13.07;;
80508;SDS011;69838;52.602;13.434;2023-11-21T01:37:42;41.28;;;14.38;;
80508;SDS011;69838;52.602;13.434;2023-11-21T01:38:28;39.28;;;13.93;;
80508;SDS011;69838;52.602;13.434;2023-11-21T01:39:14;37.45;;;14.38;;
80508;SDS011;69838;52.602;13.434;2023-11-21T01:40:01;34.50;;;12.52;;
80508;SDS011;69838;52.602;13.434;2023-11-21T01:40:47;38.75;;;14.48;;
80508;SDS011;69838;52.602;13.434;2023-11-21T01:41:32;43.20;;;15.68;;
80508;SDS011;69838;52.602;13.434;2023-11-21T01:42:18;45.22;;;16.85;;
80508;SDS011;69838;52.602;13.434;2023-11-21T01:43:04;37.28;;;14.45;;
80508;SDS011;69838;52.602;13.434;2023-11-21T01:43:49;33.85;;;12.82;;
80508;SDS011;69838;52.602;13.434;2023-11-21T01:44:36;39.88;;;16.08;;
80508;SDS011;69838;52.602;13.434;2023-11-21T01:45:22;34.85;;;13.88;;
80508;SDS011;69838;52.602;13.434;2023-11-21T01:46:10;30.60;;;11.77;;
80508;SDS011;69838;52.602;13.434;2023-11-21T01:46:55;27.75;;;10.90;;
80508;SDS011;69838;52.602;13.434;2023-11-21T01:47:42;27.85;;;12.32;;
80508;SDS011;69838;52.602;13.434;2023-11-21T01:48:29;30.15;;;14.20;;
80508;SDS011;69838;52.602;13.434;2023-11-21T01:49:16;27.35;;;10.93;;
80508;SDS011;69838;52.602;13.434;2023-11-21T01:50:03;29.52;;;12.00;;
80508;SDS011;69838;52.602;13.434;2023-11-21T01:50:51;31.10;;;12.75;;
80508;SDS011;69838;52.602;13.434;2023-11-21T01:51:37;28.48;;;11.73;;
80508;SDS011;69838;52.602;13.434;2023-11-21T01:52:23;27.48;;;10.43;;
80508;SDS011;69838;52.602;13.434;2023-11-21T01:53:10;27.38;;;10.63;;
80508;SDS011;69838;52.602;13.434;2023-11-21T01:53:58;31.40;;;11.32;;
80508;SDS011;69838;52.602;13.434;2023-11-21T01:54:44;25.42;;;10.27;;
80508;SDS011;69838;52.602;13.434;2023-11-21T01:55:30;28.63;;;11.60;;
80508;SDS011;69838;52.602;13.434;2023-11-21T01:56:15;37.40;;;16.45;;
80508;SDS011;69838;52.602;13.434;2023-11-21T01:57:02;42.58;;;16.77;;
80508;SDS011;69838;52.602;13.434;2023-11-21T01:57:51;26.45;;;11.68;;
80508;SDS011;69838;52.602;13.434;2023-11-21T01:58:36;27.25;;;11.30;;
80508;SDS011;69838;52.602;13.434;2023-11-21T01:59:22;26.70;;;12.38;;
80508;SDS011;69838;52.602;13.434;2023-11-21T02:00:09;28.92;;;10.38;;
80508;SDS011;69838;52.602;13.434;2023-11-21T02:01:00;23.55;;;11.13;;
80508;SDS011;69838;52.602;13.434;2023-11-21T02:01:46;29.00;;;14.32;;
80508;SDS011;69838;52.602;13.434;2023-11-21T02:02:32;28.77;;;13.52;;
80508;SDS011;69838;52.602;13.434;2023-11-21T02:03:17;22.85;;;10.57;;
80508;SDS011;69838;52.602;13.434;2023-11-21T02:04:04;22.20;;;8.82;;
80508;SDS011;69838;52.602;13.434;2023-11-21T02:04:50;20.63;;;9.43;;
80508;SDS011;69838;52.602;13.434;2023-11-21T02:05:36;23.88;;;10.02;;
80508;SDS011;69838;52.602;13.434;2023-11-21T02:06:22;22.45;;;10.35;;
80508;SDS011;69838;52.602;13.434;2023-11-21T02:07:09;20.08;;;9.57;;
80508;SDS011;69838;52.602;13.434;2023-11-21T02:07:55;18.95;;;8.63;;
80508;SDS011;69838;52.602;13.434;2023-11-21T02:08:41;19.83;;;9.40;;
80508;SDS011;69838;52.602;13.434;2023-11-21T02:09:29;19.98;;;10.10;;
80508;SDS011;69838;52.602;13.434;2023-11-21T02:10:15;31.55;;;17.90;;
80508;SDS011;69838;52.602;13.434;2023-11-21T02:11:01;24.38;;;12.32;;
80508;SDS011;69838;52.602;13.434;2023-11-21T02:11:47;19.30;;;9.18;;
80508;SDS011;69838;52.602;13.434;2023-11-21T02:12:34;20.00;;;8.80;;
80508;SDS011;69838;52.602;13.434;2023-11-21T02:13:21;16.52;;;8.23;;
80508;SDS011;69838;52.602;13.434;2023-11-21T02:14:06;16.17;;;9.38;;
80508;SDS011;69838;52.602;13.434;2023-11-21T02:14:54;16.40;;;8.15;;
80508;SDS011;69838;52.602;13.434;2023-11-21T02:15:40;17.73;;;8.50;;
80508;SDS011;69838;52.602;13.434;2023-11-21T02:16:26;16.35;;;8.10;;
80508;SDS011;69838;52.602;13.434;2023-11-21T02:17:16;15.23;;;9.50;;
80508;SDS011;69838;52.602;13.434;2023-11-21T02:18:03;18.45;;;8.52;;
80508;SDS011;69838;52.602;13.434;2023-11-21T02:18:51;17.08;;;7.97;;
80508;SDS011;69838;52.602;13.434;2023-11-21T02:19:37;17.95;;;8.05;;
80508;SDS011;69838;52.602;13.434;2023-11-21T02:20:24;19.25;;;9.25;;
80508;SDS011;69838;52.602;13.434;2023-11-21T02:21:11;17.90;;;9.35;;
80508;SDS011;69838;52.602;13.434;2023-11-21T02:21:57;18.30;;;9.55;;
80508;SDS011;69838;52.602;13.434;2023-11-21T02:22:50;15.27;;;8.80;;
80508;SDS011;69838;52.602;13.434;2023-11-21T02:23:37;15.43;;;8.48;;
80508;SDS011;69838;52.602;13.434;2023-11-21T02:24:27;18.55;;;8.82;;
80508;SDS011;69838;52.602;13.434;2023-11-21T02:25:12;16.05;;;8.90;;
80508;SDS011;69838;52.602;13.434;2023-11-21T02:25:58;20.35;;;10.20;;
80508;SDS011;69838;52.602;13.434;2023-11-21T02:26:49;19.27;;;11.05;;
80508;SDS011;69838;52.602;13.434;2023-11-21T02:27:36;16.48;;;9.68;;
80508;SDS011;69838;52.602;13.434;2023-11-21T02:28:22;18.70;;;9.50;;
80508;SDS011;69838;52.602;13.434;2023-11-21T02:29:10;20.73;;;12.00;;
80508;SDS011;69838;52.602;13.434;2023-11-21T02:29:57;19.92;;;12.05;;
80508;SDS011;69838;52.602;13.434;2023-11-21T02:30:43;16.77;;;10.43;;
80508;SDS011;69838;52.602;13.434;2023-11-21T02:31:29;17.52;;;10.07;;
80508;SDS011;69838;52.602;13.434;2023-11-21T02:32:15;17.48;;;10.45;;
80508;SDS011;69838;52.602;13.434;2023-11-21T02:33:02;17.13;;;10.15;;
80508;SDS011;69838;52.602;13.434;2023-11-21T02:33:48;17.13;;;9.98;;
80508;SDS011;69838;52.602;13.434;2023-11-21T02:34:33;16.55;;;10.48;;
80508;SDS011;69838;52.602;13.434;2023-11-21T02:35:19;14.90;;;9.85;;
80508;SDS011;69838;52.602;13.434;2023-11-21T02:36:06;15.73;;;9.27;;
80508;SDS011;69838;52.602;13.434;2023-11-21T02:36:51;14.18;;;8.85;;
80508;SDS011;69838;52.602;13.434;2023-11-21T02:37:37;15.43;;;9.50;;
80508;SDS011;69838;52.602;13.434;2023-11-21T02:38:25;16.40;;;9.52;;
80508;SDS011;69838;52.602;13.434;2023-11-21T02:39:11;12.77;;;7.90;;
80508;SDS011;69838;52.602;13.434;2023-11-21T02:39:58;14.90;;;8.57;;
80508;SDS011;69838;52.602;13.434;2023-11-21T02:40:44;13.38;;;8.00;;
80508;SDS011;69838;52.602;13.434;2023-11-21T02:41:29;13.82;;;8.57;;
80508;SDS011;69838;52.602;13.434;2023-11-21T02:42:16;15.18;;;8.98;;
80508;SDS011;69838;52.602;13.434;2023-11-21T02:43:01;16.60;;;10.27;;
80508;SDS011;69838;52.602;13.434;2023-11-21T02:43:47;15.98;;;9.02;;
80508;SDS011;69838;52.602;13.434;2023-11-21T02:44:33;14.35;;;7.82;;
80508;SDS011;69838;52.602;13.434;2023-11-21T02:45:18;13.85;;;9.43;;
80508;SDS011;69838;52.602;13.434;2023-11-21T02:46:05;13.98;;;8.07;;
80508;SDS011;69838;52.602;13.434;2023-11-21T02:46:52;13.63;;;7.78;;
80508;SDS011;69838;52.602;13.434;2023-11-21T02:47:37;19.25;;;10.00;;
80508;SDS011;69838;52.602;13.434;2023-11-21T02:48:23;14.65;;;9.68;;
80508;SDS011;69838;52.602;13.434;2023-11-21T02:49:10;14.23;;;8.95;;
80508;SDS011;69838;52.602;13.434;2023-11-21T02:49:56;13.40;;;9.10;;
80508;SDS011;69838;52.602;13.434;2023-11-21T02:50:42;13.95;;;11.45;;
80508;SDS011;69838;52.602;13.434;2023-11-21T02:51:28;14.30;;;9.20;;
80508;SDS011;69838;52.602;13.434;2023-11-21T02:52:14;15.98;;;10.25;;
80508;SDS011;69838;52.602;13.434;2023-11-21T02:52:59;14.88;;;9.73;;
80508;SDS011;69838;52.602;13.434;2023-11-21T02:53:47;14.45;;;9.40;;
80508;SDS011;69838;52.602;13.434;2023-11-21T02:54:33;17.13;;;10.57;;
80508;SDS011;69838;52.602;13.434;2023-11-21T02:55:21;15.95;;;9.65;;
80508;SDS011;69838;52.602;13.434;2023-11-21T02:56:09;15.18;;;8.50;;
80508;SDS011;69838;52.602;13.434;2023-11-21T02:56:55;15.93;;;9.50;;
80508;SDS011;69838;52.602;13.434;2023-11-21T02:57:41;14.20;;;9.15;;
80508;SDS011;69838;52.602;13.434;2023-11-21T02:58:26;16.20;;;9.65;;
80508;SDS011;69838;52.602;13.434;2023-11-21T02:59:12;17.20;;;9.32;;
80508;SDS011;69838;52.602;13.434;2023-11-21T02:59:58;15.50;;;10.23;;
80508;SDS011;69838;52.602;13.434;2023-11-21T03:00:44;15.20;;;8.57;;
80508;SDS011;69838;52.602;13.434;2023-11-21T03:01:31;16.77;;;9.35;;
80508;SDS011;69838;52.602;13.434;2023-11-21T03:02:16;14.98;;;8.68;;
80508;SDS011;69838;52.602;13.434;2023-11-21T03:03:02;15.35;;;9.25;;
80508;SDS011;69838;52.602;13.434;2023-11-21T03:03:49;14.80;;;8.50;;
80508;SDS011;69838;52.602;13.434;2023-11-21T03:04:36;14.18;;;8.63;;
80508;SDS011;69838;52.602;13.434;2023-11-21T03:05:21;15.00;;;8.77;;
80508;SDS011;69838;52.602;13.434;2023-11-21T03:06:07;15.43;;;9.52;;
80508;SDS011;69838;52.602;13.434;2023-11-21T03:06:53;16.70;;;9.63;;
80508;SDS011;69838;52.602;13.434;2023-11-21T03:07:39;15.07;;;9.18;;
80508;SDS011;69838;52.602;13.434;2023-11-21T03:08:24;18.20;;;9.70;;
80508;SDS011;69838;52.602;13.434;2023-11-21T03:09:12;16.05;;;9.70;;
80508;SDS011;69838;52.602;13.434;2023-11-21T03:09:57;17.02;;;11.13;;
80508;SDS011;69838;52.602;13.434;2023-11-21T03:10:43;15.77;;;9.50;;
80508;SDS011;69838;52.602;13.434;2023-11-21T03:11:29;14.20;;;8.27;;
80508;SDS011;69838;52.602;13.434;2023-11-21T03:12:14;15.63;;;9.32;;
80508;SDS011;69838;52.602;13.434;2023-11-21T03:13:01;15.02;;;8.75;;
80508;SDS011;69838;52.602;13.434;2023-11-21T03:13:47;13.07;;;7.63;;
80508;SDS011;69838;52.602;13.434;2023-11-21T03:14:32;14.35;;;10.70;;
80508;SDS011;69838;52.602;13.434;2023-11-21T03:15:18;14.20;;;8.93;;
80508;SDS011;69838;52.602;13.434;2023-11-21T03:16:05;13.90;;;9.07;;
80508;SDS011;69838;52.602;13.434;2023-11-21T03:16:51;13.20;;;8.00;;
80508;SDS011;69838;52.602;13.434;2023-11-21T03:17:36;14.70;;;10.20;;
80508;SDS011;69838;52.602;13.434;2023-11-21T03:18:22;12.98;;;7.85;;
80508;SDS011;69838;52.602;13.434;2023-11-21T03:19:08;12.88;;;8.10;;
80508;SDS011;69838;52.602;13.434;2023-11-21T03:19:53;14.80;;;8.73;;
80508;SDS011;69838;52.602;13.434;2023-11-21T03:20:39;13.90;;;8.50;;
80508;SDS011;69838;52.602;13.434;2023-11-21T03:21:25;14.73;;;9.25;;
80508;SDS011;69838;52.602;13.434;2023-11-21T03:22:11;14.50;;;8.30;;
80508;SDS011;69838;52.602;13.434;2023-11-21T03:22:57;15.70;;;8.32;;
80508;SDS011;69838;52.602;13.434;2023-11-21T03:23:44;15.95;;;10.00;;
80508;SDS011;69838;52.602;13.434;2023-11-21T03:24:31;14.70;;;8.48;;
80508;SDS011;69838;52.602;13.434;2023-11-21T03:25:17;14.27;;;8.60;;
80508;SDS011;69838;52.602;13.434;2023-11-21T03:26:03;14.40;;;8.10;;
80508;SDS011;69838;52.602;13.434;2023-11-21T03:26:49;12.95;;;8.30;;
80508;SDS011;69838;52.602;13.434;2023-11-21T03:27:35;12.82;;;7.97;;
80508;SDS011;69838;52.602;13.434;2023-11-21T03:28:22;13.93;;;8.27;;
80508;SDS011;69838;52.602;13.434;2023-11-21T03:29:08;14.35;;;8.43;;
80508;SDS011;69838;52.602;13.434;2023-11-21T03:29:54;14.02;;;8.93;;
80508;SDS011;69838;52.602;13.434;2023-11-21T03:30:40;14.57;;;9.07;;
80508;SDS011;69838;52.602;13.434;2023-11-21T03:31:26;15.10;;;8.93;;
80508;SDS011;69838;52.602;13.434;2023-11-21T03:32:12;13.98;;;8.30;;
80508;SDS011;69838;52.602;13.434;2023-11-21T03:32:58;14.65;;;8.32;;
80508;SDS011;69838;52.602;13.434;2023-11-21T03:33:43;14.50;;;8.80;;
80508;SDS011;69838;52.602;13.434;2023-11-21T03:34:30;14.93;;;8.50;;
80508;SDS011;69838;52.602;13.434;2023-11-21T03:35:15;13.43;;;8.77;;
80508;SDS011;69838;52.602;13.434;2023-11-21T03:36:01;13.40;;;8.23;;
80508;SDS011;69838;52.602;13.434;2023-11-21T03:36:48;13.57;;;7.70;;
80508;SDS011;69838;52.602;13.434;2023-11-21T03:37:34;14.13;;;8.15;;
80508;SDS011;69838;52.602;13.434;2023-11-21T03:38:19;14.32;;;8.50;;
80508;SDS011;69838;52.602;13.434;2023-11-21T03:39:06;13.02;;;8.18;;
80508;SDS011;69838;52.602;13.434;2023-11-21T03:39:53;14.15;;;8.35;;
80508;SDS011;69838;52.602;13.434;2023-11-21T03:40:40;14.05;;;8.73;;
80508;SDS011;69838;52.602;13.434;2023-11-21T03:41:26;14.82;;;10.30;;
80508;SDS011;69838;52.602;13.434;2023-11-21T03:42:11;12.95;;;8.45;;
80508;SDS011;69838;52.602;13.434;2023-11-21T03:42:57;14.60;;;8.90;;
80508;SDS011;69838;52.602;13.434;2023-11-21T03:43:43;14.30;;;8.45;;
80508;SDS011;69838;52.602;13.434;2023-11-21T03:44:29;14.38;;;9.10;;
80508;SDS011;69838;52.602;13.434;2023-11-21T03:45:14;14.48;;;8.80;;
80508;SDS011;69838;52.602;13.434;2023-11-21T03:46:00;13.07;;;8.13;;
80508;SDS011;69838;52.602;13.434;2023-11-21T03:46:46;13.68;;;7.57;;
80508;SDS011;69838;52.602;13.434;2023-11-21T03:47:31;14.88;;;8.80;;
80508;SDS011;69838;52.602;13.434;2023-11-21T03:48:17;14.65;;;9.18;;
80508;SDS011;69838;52.602;13.434;2023-11-21T03:49:03;15.38;;;8.68;;
80508;SDS011;69838;52.602;13.434;2023-11-21T03:49:48;13.93;;;8.50;;
80508;SDS011;69838;52.602;13.434;2023-11-21T03:50:35;14.65;;;8.07;;
80508;SDS011;69838;52.602;13.434;2023-11-21T03:51:20;16.33;;;8.75;;
80508;SDS011;69838;52.602;13.434;2023-11-21T03:52:06;14.18;;;7.90;;
80508;SDS011;69838;52.602;13.434;2023-11-21T03:52:52;16.00;;;9.13;;
80508;SDS011;69838;52.602;13.434;2023-11-21T03:53:38;16.50;;;10.70;;
80508;SDS011;69838;52.602;13.434;2023-11-21T03:54:24;15.70;;;8.73;;
80508;SDS011;69838;52.602;13.434;2023-11-21T03:55:11;15.15;;;9.23;;
80508;SDS011;69838;52.602;13.434;2023-11-21T03:55:57;16.40;;;8.88;;
80508;SDS011;69838;52.602;13.434;2023-11-21T03:56:43;15.40;;;8.77;;
80508;SDS011;69838;52.602;13.434;2023-11-21T03:57:28;14.32;;;8.73;;
80508;SDS011;69838;52.602;13.434;2023-11-21T03:58:14;15.02;;;8.73;;
80508;SDS011;69838;52.602;13.434;2023-11-21T03:59:00;13.80;;;7.43;;
80508;SDS011;69838;52.602;13.434;2023-11-21T03:59:46;14.35;;;8.25;;
80508;SDS011;69838;52.602;13.434;2023-11-21T04:00:31;13.23;;;8.43;;
80508;SDS011;69838;52.602;13.434;2023-11-21T04:01:20;14.75;;;8.60;;
80508;SDS011;69838;52.602;13.434;2023-11-21T04:02:06;14.60;;;8.05;;
80508;SDS011;69838;52.602;13.434;2023-11-21T04:02:52;13.63;;;8.45;;
80508;SDS011;69838;52.602;13.434;2023-11-21T04:03:39;13.68;;;7.97;;
80508;SDS011;69838;52.602;13.434;2023-11-21T04:04:25;14.35;;;8.20;;
80508;SDS011;69838;52.602;13.434;2023-11-21T04:05:10;13.55;;;7.55;;
80508;SDS011;69838;52.602;13.434;2023-11-21T04:05:57;14.38;;;8.77;;
80508;SDS011;69838;52.602;13.434;2023-11-21T04:06:42;12.77;;;7.15;;
80508;SDS011;69838;52.602;13.434;2023-11-21T04:07:27;13.50;;;8.85;;
80508;SDS011;69838;52.602;13.434;2023-11-21T04:08:14;13.88;;;7.65;;
80508;SDS011;69838;52.602;13.434;2023-11-21T04:08:59;13.52;;;7.30;;
80508;SDS011;69838;52.602;13.434;2023-11-21T04:09:44;13.75;;;7.78;;
80508;SDS011;69838;52.602;13.434;2023-11-21T04:10:32;12.32;;;7.68;;
80508;SDS011;69838;52.602;13.434;2023-11-21T04:11:17;13.52;;;7.28;;
80508;SDS011;69838;52.602;13.434;2023-11-21T04:12:03;12.98;;;7.45;;
80508;SDS011;69838;52.602;13.434;2023-11-21T04:12:50;14.05;;;8.27;;
80508;SDS011;69838;52.602;13.434;2023-11-21T04:13:35;13.73;;;7.85;;
80508;SDS011;69838;52.602;13.434;2023-11-21T04:14:20;12.32;;;7.95;;
80508;SDS011;69838;52.602;13.434;2023-11-21T04:15:07;14.77;;;8.45;;
80508;SDS011;69838;52.602;13.434;2023-11-21T04:15:53;13.57;;;7.32;;
80508;SDS011;69838;52.602;13.434;2023-11-21T04:16:40;14.82;;;8.23;;
80508;SDS011;69838;52.602;13.434;2023-11-21T04:17:26;13.65;;;7.78;;
80508;SDS011;69838;52.602;13.434;2023-11-21T04:18:12;13.18;;;7.97;;
80508;SDS011;69838;52.602;13.434;2023-11-21T04:18:57;14.35;;;7.85;;
80508;SDS011;69838;52.602;13.434;2023-11-21T04:19:43;15.43;;;8.93;;
80508;SDS011;69838;52.602;13.434;2023-11-21T04:20:29;14.25;;;7.72;;
80508;SDS011;69838;52.602;13.434;2023-11-21T04:21:15;15.02;;;7.70;;
80508;SDS011;69838;52.602;13.434;2023-11-21T04:22:00;15.55;;;8.57;;
80508;SDS011;69838;52.602;13.434;2023-11-21T04:22:46;14.95;;;8.43;;
80508;SDS011;69838;52.602;13.434;2023-11-21T04:23:32;13.60;;;8.20;;
80508;SDS011;69838;52.602;13.434;2023-11-21T04:24:17;15.30;;;7.72;;
80508;SDS011;69838;52.602;13.434;2023-11-21T04:25:03;13.00;;;8.07;;
80508;SDS011;69838;52.602;13.434;2023-11-21T04:25:51;13.38;;;8.60;;
80508;SDS011;69838;52.602;13.434;2023-11-21T04:26:39;14.40;;;7.80;;
80508;SDS011;69838;52.602;13.434;2023-11-21T04:27:24;12.25;;;7.88;;